Penitas, Texas
Current Conditions -  °F | °C
As of 1:53 PM on Friday 28 Nov 2014 (Local Time) from KMFE Reporting Station
Clear Clear  
Wind Chill: 76°   Ceiling: Unl
Heat Index: 76°   Visibility: 10mi
Dew Point: 55°   Wind: 13mph
Humidity: 48%   Direction: 150°SSE
Pressure: 30.18"   Gusts: NA
Location:  26.23°N, 98.44°W
Report Text: KMFE 281953Z 15011KT 10SM CLR 24/13 A3018 RMK AO2 SLP218 T02440128
Loading
Personal Weather Stations






























Interactive Weather Map New forecast layout! Learn more

10-Day Weather Forecast

Advertisements
Track Severe Weather on mobile